Time;durP1;ratioP1;P1;durP2;ratioP2;P2;SDS_P1;SDS_P2;PMS_P1;PMS_P2;Temp;Humidity;BMP_temperature;BMP_pressure;BME280_temperature;BME280_humidity;BME280_pressure;Samples;Min_cycle;Max_cycle;Signal;HPM_P1;HPM_P2
2022/01/26 00:00:55;;;;;;;111.68;41.85;;;;;;;-145.18;100.00;47410.56;4929652;29;20079;-73
2022/01/26 00:06:19;;;;;;;124.97;45.42;;;;;;;-145.18;100.00;47271.84;4928790;29;20071;-73
2022/01/26 00:08:45;;;;;;;124.40;45.58;;;;;;;-145.18;100.00;47254.25;4929523;29;20119;-73
2022/01/26 00:11:10;;;;;;;121.17;47.57;;;;;;;-145.18;100.00;47232.75;4928711;29;20489;-73
2022/01/26 00:13:36;;;;;;;126.37;47.47;;;;;;;-145.18;100.00;47150.72;4928945;29;20553;-73
2022/01/26 00:16:05;;;;;;;126.20;44.20;;;;;;;-145.18;100.00;47139.00;4928880;29;20058;-73
2022/01/26 00:18:34;;;;;;;105.60;36.60;;;;;;;-145.18;100.00;47273.78;4931987;29;20120;-73
2022/01/26 00:21:08;;;;;;;119.68;43.72;;;;;;;-145.18;100.00;47482.84;4916390;29;20528;-73
2022/01/26 00:23:51;;;;;;;116.40;44.42;;;;;;;-145.18;100.00;47459.41;4932598;29;20537;-73
2022/01/26 00:26:32;;;;;;;119.18;45.85;;;;;;;-145.18;100.00;47414.47;4931583;29;20134;-73
2022/01/26 00:38:34;;;;;;;124.50;46.95;;;;;;;-145.18;100.00;47267.94;4904922;29;20416;-74
2022/01/26 00:40:05;;;;;;;122.13;44.95;;;;;;;-145.18;100.00;47156.56;4932274;29;20079;-73
2022/01/26 00:42:36;;;;;;;131.53;46.77;;;;;;;-145.18;100.00;47047.19;4932042;29;20039;-73
2022/01/26 00:45:03;;;;;;;122.73;46.73;;;;;;;-145.18;100.00;47084.28;4932183;29;20278;-73
2022/01/26 00:47:28;;;;;;;132.07;45.58;;;;;;;-145.18;100.00;47080.38;4931704;29;20767;-73
2022/01/26 00:49:59;;;;;;;125.93;47.00;;;;;;;-145.18;100.00;47047.19;4932062;29;20043;-74
2022/01/26 00:52:39;;;;;;;123.00;47.28;;;;;;;-145.18;100.00;47013.97;4931478;29;20050;-73
2022/01/26 00:55:06;;;;;;;124.23;46.50;;;;;;;-145.18;100.00;46996.38;4931844;29;20039;-73
2022/01/26 00:57:31;;;;;;;124.07;47.03;;;;;;;-145.18;100.00;46974.91;4931592;29;20274;-74
2022/01/26 00:59:58;;;;;;;124.20;47.57;;;;;;;-145.18;100.00;46971.00;4931842;29;20363;-73
2022/01/26 01:02:24;;;;;;;128.93;48.65;;;;;;;-145.18;100.00;46980.75;4931582;29;20636;-73
2022/01/26 01:04:49;;;;;;;125.47;47.17;;;;;;;-145.18;100.00;46990.53;4931672;29;20051;-73
2022/01/26 01:07:19;;;;;;;127.63;46.47;;;;;;;-145.18;100.00;46953.41;4931328;29;20150;-73
2022/01/26 01:09:45;;;;;;;117.40;47.10;;;;;;;-145.18;100.00;47006.16;4931451;29;20481;-73
2022/01/26 01:12:11;;;;;;;130.40;46.90;;;;;;;-145.18;100.00;47031.53;4931893;29;20117;-73
2022/01/26 01:14:38;;;;;;;117.65;44.30;;;;;;;-145.18;100.00;47062.81;4931500;29;20039;-73
2022/01/26 01:17:07;;;;;;;118.85;43.55;;;;;;;-145.18;100.00;47109.69;4930630;29;20035;-73
2022/01/26 01:19:41;;;;;;;117.00;44.63;;;;;;;-145.18;100.00;47135.09;4931673;29;20043;-73
2022/01/26 01:27:58;;;;;;;123.55;46.75;;;;;;;-145.18;100.00;47049.13;4930704;29;20054;-73
2022/01/26 01:30:33;;;;;;;125.05;43.35;;;;;;;-145.18;100.00;47015.91;4931365;29;20416;-73
2022/01/26 01:35:35;;;;;;;120.60;45.00;;;;;;;-145.18;100.00;46943.63;4931574;29;20055;-73
2022/01/26 01:38:08;;;;;;;119.47;45.40;;;;;;;-145.18;100.00;46972.94;4930781;29;20273;-73
2022/01/26 01:40:35;;;;;;;128.33;47.17;;;;;;;-145.18;100.00;46947.53;4914328;29;20328;-73
2022/01/26 01:43:01;;;;;;;125.97;46.23;;;;;;;-145.18;100.00;46947.53;4930741;29;20647;-73
2022/01/26 01:45:47;;;;;;;122.57;48.53;;;;;;;-145.18;100.00;46941.69;4931228;29;20330;-73
2022/01/26 01:48:18;;;;;;;121.07;45.58;;;;;;;-145.18;100.00;46933.88;4931037;29;20046;-73
2022/01/26 01:50:43;;;;;;;123.33;46.47;;;;;;;-145.18;100.00;46922.16;4931118;29;20042;-73
2022/01/26 01:53:10;;;;;;;123.80;46.17;;;;;;;-145.18;100.00;46926.06;4930400;29;20635;-73
2022/01/26 01:55:47;;;;;;;120.73;45.47;;;;;;;-145.18;100.00;46906.53;4930612;29;20651;-73
2022/01/26 01:58:13;;;;;;;137.97;47.83;;;;;;;-145.18;100.00;46918.25;4930211;29;20650;-73
2022/01/26 02:00:39;;;;;;;122.73;44.97;;;;;;;-145.18;100.00;46888.94;4930510;29;20361;-73
2022/01/26 02:03:04;;;;;;;126.10;48.20;;;;;;;-145.18;100.00;46908.47;4929587;29;20485;-73
2022/01/26 02:05:30;;;;;;;121.43;46.00;;;;;;;-145.18;100.00;46924.09;4929778;29;20035;-73
2022/01/26 02:07:55;;;;;;;125.47;45.30;;;;;;;-145.18;100.00;46914.34;4913482;29;20036;-73
2022/01/26 02:10:23;;;;;;;132.53;47.43;;;;;;;-145.18;100.00;46933.88;4931082;29;20067;-73
2022/01/26 02:12:59;;;;;;;124.97;46.23;;;;;;;-145.18;100.00;46924.09;4930467;29;20036;-73
2022/01/26 02:15:32;;;;;;;;;;;;;;;-145.18;100.00;46912.38;4930813;29;20350;-73
2022/01/26 02:56:14;;;;;;;131.40;44.23;;;;;;;-145.18;100.00;46883.09;4922585;29;20123;-73
2022/01/26 02:58:54;;;;;;;136.88;47.50;;;;;;;-145.18;100.00;46898.72;4922248;29;20284;-73
2022/01/26 03:06:38;;;;;;;129.90;46.80;;;;;;;-145.18;100.00;46869.41;4922723;29;20051;-72
2022/01/26 03:09:10;;;;;;;124.90;43.50;;;;;;;-145.18;100.00;46908.47;4929725;29;20048;-75
2022/01/26 03:11:38;;;;;;;135.77;47.45;;;;;;;-145.18;100.00;46867.44;4930293;29;20048;-75
2022/01/26 03:14:14;;;;;;;133.95;45.45;;;;;;;-145.18;100.00;46855.72;4929429;29;20047;-75
2022/01/26 03:16:45;;;;;;;134.35;47.30;;;;;;;-145.18;100.00;46861.59;4929991;29;20039;-74
2022/01/26 03:19:25;;;;;;;133.63;46.75;;;;;;;-145.18;100.00;46869.41;4929992;29;20040;-75
2022/01/26 03:22:18;;;;;;;134.23;46.47;;;;;;;-145.18;100.00;46845.97;4929993;29;20150;-72
2022/01/26 03:30:28;;;;;;;140.65;47.17;;;;;;;-145.18;100.00;46855.72;4930238;29;20266;-74
2022/01/26 03:33:11;;;;;;;141.52;47.97;;;;;;;-145.18;100.00;46842.06;4929646;29;20044;-74
2022/01/26 03:35:53;;;;;;;133.47;46.47;;;;;;;-145.18;100.00;46871.38;4929766;29;20456;-74
2022/01/26 03:38:27;;;;;;;135.57;46.58;;;;;;;-145.18;100.00;46838.16;4929572;29;20361;-74
2022/01/26 03:41:15;;;;;;;135.27;47.63;;;;;;;-145.18;100.00;46838.16;4930014;29;20047;-74
2022/01/26 03:43:40;;;;;;;136.07;45.80;;;;;;;-145.18;100.00;46867.44;4929841;29;20055;-74
2022/01/26 03:46:06;;;;;;;136.30;46.40;;;;;;;-145.18;100.00;46847.91;4929638;29;20070;-74
2022/01/26 03:48:31;;;;;;;140.33;47.90;;;;;;;-145.18;100.00;46859.63;4929416;29;20407;-73
2022/01/26 03:50:57;;;;;;;132.80;45.30;;;;;;;-145.18;100.00;46844.00;4929523;29;20101;-73
2022/01/26 03:53:23;;;;;;;131.97;45.77;;;;;;;-145.18;100.00;46869.41;4932744;29;20051;-74
2022/01/26 03:55:48;;;;;;;135.90;47.50;;;;;;;-145.18;100.00;46832.28;4934035;29;20043;-73
2022/01/26 03:58:14;;;;;;;135.93;45.30;;;;;;;-145.18;100.00;46857.69;4932478;29;20099;-74
2022/01/26 04:00:39;;;;;;;136.40;45.40;;;;;;;-145.18;100.00;46828.38;4933580;29;20048;-73
2022/01/26 04:03:04;;;;;;;136.50;44.97;;;;;;;-145.18;100.00;46838.16;4932653;29;20048;-74
2022/01/26 04:05:30;;;;;;;138.13;43.33;;;;;;;-145.18;100.00;46844.00;4931956;29;20047;-74
2022/01/26 04:08:01;;;;;;;132.53;45.67;;;;;;;-145.18;100.00;46871.38;4932058;29;20147;-74
2022/01/26 04:13:12;;;;;;;142.38;47.45;;;;;;;-145.18;100.00;46840.09;4883151;29;20051;-74
2022/01/26 04:15:38;;;;;;;133.87;44.63;;;;;;;-145.18;100.00;46838.16;4932587;29;20044;-74
2022/01/26 04:18:10;;;;;;;138.87;45.57;;;;;;;-145.18;100.00;46855.72;4931987;29;20548;-74
2022/01/26 04:20:40;;;;;;;137.95;45.65;;;;;;;-145.18;100.00;46847.91;4932799;29;20501;-74
2022/01/26 04:23:17;;;;;;;146.27;48.78;;;;;;;-145.18;100.00;46847.91;4932100;29;20051;-74
2022/01/26 04:25:45;;;;;;;149.80;45.70;;;;;;;-145.18;100.00;46832.28;4932922;29;20048;-74
2022/01/26 04:28:17;;;;;;;134.30;44.85;;;;;;;-145.18;100.00;46834.25;4932032;29;20040;-74
2022/01/26 04:30:42;;;;;;;139.65;46.35;;;;;;;-145.18;100.00;46808.84;4932975;29;20043;-74
2022/01/26 04:33:08;;;;;;;133.33;44.83;;;;;;;-145.18;100.00;46838.16;4932062;29;20032;-74
2022/01/26 04:35:34;;;;;;;145.60;48.23;;;;;;;-145.18;100.00;46824.47;4932454;29;20044;-74
2022/01/26 04:38:16;;;;;;;145.77;46.87;;;;;;;-145.18;100.00;46812.75;4931672;29;20036;-74
2022/01/26 04:41:11;;;;;;;146.85;47.60;;;;;;;-145.18;100.00;46820.56;4932743;29;20050;-74
2022/01/26 04:43:34;;;;;;;145.10;48.97;;;;;;;-145.18;100.00;46824.47;4931173;29;20089;-74
2022/01/26 04:46:00;;;;;;;137.18;47.03;;;;;;;-145.18;100.00;46834.25;4931873;29;20048;-74
2022/01/26 04:48:25;;;;;;;141.17;46.80;;;;;;;-145.18;100.00;46851.81;4932061;29;20082;-74
2022/01/26 04:50:52;;;;;;;145.60;48.63;;;;;;;-145.18;100.00;46838.16;4932314;29;20083;-74
2022/01/26 04:53:17;;;;;;;138.95;45.55;;;;;;;-145.18;100.00;46818.63;4914719;29;20408;-74
2022/01/26 04:55:43;;;;;;;149.10;48.63;;;;;;;-145.18;100.00;46820.56;4932016;29;20043;-74
2022/01/26 04:58:08;;;;;;;143.80;47.37;;;;;;;-145.18;100.00;46814.72;4931562;29;20492;-74
2022/01/26 05:00:34;;;;;;;139.83;44.57;;;;;;;-145.18;100.00;46797.13;4932637;29;20039;-74
2022/01/26 05:53:24;;;;;;;158.23;47.88;;;;;;;-145.18;100.00;46736.56;4900466;29;20541;-74
